Saint Bonifacius, Minnesota
Current Conditions -  °F | °C
As of 7:53 AM on Tuesday 21 Oct 2014 (Local Time) from KFCM Reporting Station
Clear Clear  
Wind Chill: 36°   Ceiling: Unl
Heat Index: 39°   Visibility: 10mi
Dew Point: 38°   Wind: 5mph
Humidity: 96%   Direction: 70°ENE
Pressure: 30.17"   Gusts: NA
Location:  44.91°N, 93.75°W
Report Text: KFCM 211253Z 07004KT 10SM CLR 04/03 A3017 RMK AO2 SLP222 T00390033
Loading
Personal Weather Stations






























Interactive Weather Map
Tropical Storm Tracking
New forecast layout! Learn more

10-Day Weather Forecast

Advertisements
Track Severe Weather on mobile